Time;durP1;ratioP1;P1;durP2;ratioP2;P2;SDS_P1;SDS_P2;PMS_P1;PMS_P2;Temp;Humidity;BMP_temperature;BMP_pressure;BME280_temperature;BME280_humidity;BME280_pressure;Samples;Min_cycle;Max_cycle;Signal;HPM_P1;HPM_P2
2022/07/29 00:02:23;;;;;;;34.75;15.75;;;;;;;17.66;100.00;93335.47;5088586;28;20097;-77
2022/07/29 00:04:50;;;;;;;24.40;14.55;;;;;;;17.76;100.00;93324.34;5088306;28;20093;-76
2022/07/29 00:07:18;;;;;;;27.00;14.57;;;;;;;17.88;100.00;93327.53;5088485;28;20115;-77
2022/07/29 00:09:45;;;;;;;27.95;12.90;;;;;;;17.98;100.00;93324.22;5088065;28;20047;-76
2022/07/29 00:12:12;;;;;;;26.98;13.25;;;;;;;18.02;100.00;93327.09;5088398;28;20096;-77
2022/07/29 00:14:38;;;;;;;26.73;13.65;;;;;;;17.99;100.00;93330.97;5089303;28;20040;-77
2022/07/29 00:17:07;;;;;;;26.20;13.48;;;;;;;18.02;100.00;93340.84;5088672;28;20109;-77
2022/07/29 00:19:34;;;;;;;21.73;12.38;;;;;;;18.02;100.00;93337.50;5088675;28;20118;-78
2022/07/29 00:22:01;;;;;;;22.05;12.02;;;;;;;17.79;100.00;93304.88;5088550;28;20046;-77
2022/07/29 00:24:28;;;;;;;24.15;11.73;;;;;;;17.81;100.00;93324.38;5088205;28;20625;-78
2022/07/29 00:26:55;;;;;;;17.75;11.35;;;;;;;17.92;100.00;93340.81;5088626;28;20052;-77
2022/07/29 00:29:21;;;;;;;21.30;11.75;;;;;;;17.91;100.00;93331.44;5088570;28;20537;-78
2022/07/29 00:31:48;;;;;;;21.08;11.80;;;;;;;17.85;100.00;93332.44;5088551;28;20040;-78
2022/07/29 00:36:58;;;;;;;19.75;11.35;;;;;;;17.89;100.00;93323.13;5053813;28;20068;-78
2022/07/29 00:39:24;;;;;;;19.25;11.05;;;;;;;17.91;100.00;93331.44;5088543;28;20101;-77
2022/07/29 00:41:51;;;;;;;19.58;11.63;;;;;;;17.93;100.00;93331.19;5088307;28;20044;-78
2022/07/29 00:44:18;;;;;;;19.90;12.18;;;;;;;17.86;100.00;93324.41;5088345;28;20048;-78
2022/07/29 00:46:45;;;;;;;24.50;12.77;;;;;;;17.77;100.00;93320.72;5088176;28;20044;-78
2022/07/29 00:49:11;;;;;;;22.75;12.68;;;;;;;17.80;100.00;93338.41;5088527;28;20040;-78
2022/07/29 00:51:40;;;;;;;25.02;13.13;;;;;;;17.72;100.00;93328.47;5088317;28;20444;-78
2022/07/29 00:54:08;;;;;;;23.65;12.18;;;;;;;17.68;100.00;93332.63;5088582;28;20093;-78
2022/07/29 00:56:34;;;;;;;22.40;13.48;;;;;;;17.63;100.00;93323.78;5088158;28;20463;-77
2022/07/29 00:59:01;;;;;;;20.92;11.30;;;;;;;17.56;100.00;93315.41;5089845;28;20085;-76
2022/07/29 01:01:28;;;;;;;18.80;10.35;;;;;;;17.60;100.00;93316.47;5091784;28;20043;-76
2022/07/29 01:03:55;;;;;;;18.10;10.90;;;;;;;17.52;100.00;93305.75;5091824;28;20050;-77
2022/07/29 01:06:22;;;;;;;15.98;9.85;;;;;;;17.48;100.00;93295.09;5091921;28;20662;-76
2022/07/29 01:08:51;;;;;;;17.73;10.40;;;;;;;17.49;100.00;93301.84;5091861;28;20390;-78
2022/07/29 01:11:18;;;;;;;19.98;11.07;;;;;;;17.58;100.00;93315.16;5092216;28;20105;-78
2022/07/29 01:13:46;;;;;;;20.08;10.75;;;;;;;17.54;100.00;93308.91;5091324;28;20050;-76
2022/07/29 01:16:19;;;;;;;16.58;10.10;;;;;;;17.46;100.00;93304.97;5091351;28;20539;-76
2022/07/29 01:18:50;;;;;;;18.52;10.57;;;;;;;17.44;100.00;93288.84;5091515;28;20116;-77
2022/07/29 01:21:35;;;;;;;17.63;10.27;;;;;;;17.32;100.00;93265.66;5091464;28;20125;-76
2022/07/29 01:24:20;;;;;;;15.18;10.07;;;;;;;17.54;100.00;93288.91;5109272;28;20108;-76
2022/07/29 01:26:50;;;;;;;17.52;9.38;;;;;;;17.48;100.00;93300.28;5111697;28;20039;-76
2022/07/29 01:29:27;;;;;;;16.80;9.63;;;;;;;17.49;100.00;93302.66;5100026;28;20089;-76
2022/07/29 01:31:57;;;;;;;14.75;9.23;;;;;;;17.45;100.00;93296.38;5091586;28;20458;-77
2022/07/29 01:34:28;;;;;;;14.73;9.50;;;;;;;17.44;100.00;93292.22;5091463;28;20408;-77
2022/07/29 01:37:00;;;;;;;23.75;12.43;;;;;;;17.42;100.00;93294.31;5091500;28;20040;-78
2022/07/29 01:39:31;;;;;;;15.50;10.15;;;;;;;17.38;100.00;93297.63;5091304;28;20109;-77
2022/07/29 01:42:02;;;;;;;17.73;9.88;;;;;;;17.30;100.00;93298.88;5091014;28;20040;-77
2022/07/29 01:44:35;;;;;;;15.70;9.57;;;;;;;17.24;100.00;93287.69;5091003;28;20040;-77
2022/07/29 01:47:13;;;;;;;13.70;9.57;;;;;;;17.17;100.00;93290.47;5091319;28;20040;-77
2022/07/29 01:49:43;;;;;;;14.93;9.57;;;;;;;17.11;100.00;93291.47;5090712;28;20044;-77
2022/07/29 01:52:16;;;;;;;15.35;9.77;;;;;;;17.03;100.00;93291.94;5091338;28;20044;-77
2022/07/29 01:54:46;;;;;;;19.15;10.70;;;;;;;17.02;100.00;93292.91;5090892;28;20570;-77
2022/07/29 01:57:18;;;;;;;23.65;11.77;;;;;;;16.96;100.00;93290.28;5091136;28;20058;-76
2022/07/29 01:59:48;;;;;;;17.20;10.55;;;;;;;16.90;100.00;93280.91;5090646;28;20044;-79
2022/07/29 02:02:17;;;;;;;21.48;12.57;;;;;;;16.80;100.00;93268.63;5091041;28;20038;-79
2022/07/29 02:04:48;;;;;;;19.95;11.18;;;;;;;16.80;100.00;93271.22;5091822;28;20416;-77
2022/07/29 02:07:18;;;;;;;18.15;10.73;;;;;;;16.76;100.00;93277.16;5104012;28;20044;-77
2022/07/29 02:09:48;;;;;;;20.77;10.90;;;;;;;16.81;100.00;93270.19;5104919;28;20093;-77
2022/07/29 02:12:17;;;;;;;18.95;9.70;;;;;;;16.85;100.00;93278.25;5098374;28;20500;-78
2022/07/29 02:14:50;;;;;;;18.02;11.05;;;;;;;16.80;100.00;93270.47;5097788;28;20086;-78
2022/07/29 02:17:24;;;;;;;17.63;10.07;;;;;;;16.83;100.00;93270.75;5097527;28;20044;-79
2022/07/29 02:19:54;;;;;;;13.27;9.00;;;;;;;16.93;100.00;93270.03;5098137;28;20049;-78
2022/07/29 02:22:22;;;;;;;19.98;11.02;;;;;;;16.96;100.00;93268.75;5097250;28;20088;-76
2022/07/29 02:24:51;;;;;;;19.83;10.50;;;;;;;16.92;100.00;93260.69;5098456;28;20040;-76
2022/07/29 02:27:19;;;;;;;15.55;9.85;;;;;;;16.92;100.00;93254.72;5104813;28;20044;-76
2022/07/29 02:29:49;;;;;;;15.70;9.13;;;;;;;16.99;100.00;93264.88;5101683;28;20044;-76
2022/07/29 02:32:18;;;;;;;23.58;11.27;;;;;;;17.04;100.00;93265.72;5096703;28;20093;-76
2022/07/29 02:34:47;;;;;;;19.13;10.75;;;;;;;17.04;100.00;93265.72;5100493;28;20051;-75
2022/07/29 02:37:15;;;;;;;18.33;10.80;;;;;;;17.04;100.00;93264.97;5104505;28;20043;-76
2022/07/29 02:39:44;;;;;;;17.98;10.43;;;;;;;16.82;100.00;93237.25;5099568;28;20047;-75
2022/07/29 02:42:15;;;;;;;17.48;10.45;;;;;;;17.05;100.00;93263.94;5096216;28;20273;-76
2022/07/29 02:44:43;;;;;;;18.45;10.60;;;;;;;17.06;100.00;93263.69;5102547;28;20460;-77
2022/07/29 02:47:19;;;;;;;19.45;10.10;;;;;;;17.02;100.00;93256.59;5091882;28;20547;-77
2022/07/29 02:49:55;;;;;;;17.40;10.25;;;;;;;17.02;100.00;93254.78;5101159;28;20044;-77
2022/07/29 02:52:27;;;;;;;15.00;9.15;;;;;;;17.00;100.00;93256.88;5104646;28;20048;-77
2022/07/29 02:54:57;;;;;;;17.02;10.23;;;;;;;16.98;100.00;93255.53;5099790;28;20096;-77
2022/07/29 02:57:37;;;;;;;15.25;9.15;;;;;;;16.90;100.00;93249.75;5095988;28;20052;-76
2022/07/29 03:00:08;;;;;;;16.48;10.63;;;;;;;16.81;100.00;93240.88;5100283;28;20040;-75
2022/07/29 03:02:40;;;;;;;14.95;9.90;;;;;;;16.80;100.00;93255.66;5103993;28;20505;-76
2022/07/29 03:05:10;;;;;;;16.38;9.32;;;;;;;16.78;100.00;93257.72;5099071;28;20501;-75
2022/07/29 03:07:39;;;;;;;16.20;9.80;;;;;;;16.74;100.00;93254.06;5095707;28;20493;-76
2022/07/29 03:10:08;;;;;;;16.08;9.73;;;;;;;16.70;100.00;93256.38;5101694;28;20467;-76
2022/07/29 03:12:36;;;;;;;18.52;9.90;;;;;;;16.66;100.00;93255.28;5103869;28;20566;-77
2022/07/29 03:15:03;;;;;;;14.68;10.25;;;;;;;16.40;100.00;93223.16;5097030;28;20832;-78
2022/07/29 03:17:32;;;;;;;19.45;10.43;;;;;;;16.61;100.00;93251.88;5096734;28;20043;-77
2022/07/29 03:20:01;;;;;;;16.75;9.93;;;;;;;16.54;100.00;93255.44;5104098;28;20134;-78
2022/07/29 03:22:28;;;;;;;18.55;11.10;;;;;;;16.51;100.00;93265.50;5101978;28;20097;-78
2022/07/29 03:24:55;;;;;;;15.18;9.30;;;;;;;16.49;100.00;93262.41;5095940;28;20101;-78
2022/07/29 03:27:22;;;;;;;18.08;10.95;;;;;;;16.47;100.00;93264.47;5099728;28;20048;-78
2022/07/29 03:29:49;;;;;;;21.38;10.90;;;;;;;16.34;100.00;93274.16;5106631;28;20047;-77
2022/07/29 03:32:16;;;;;;;14.70;9.02;;;;;;;16.37;100.00;93275.50;5101177;28;20046;-79
2022/07/29 03:34:42;;;;;;;16.50;10.38;;;;;;;16.38;100.00;93274.47;5103940;28;20467;-77
2022/07/29 03:37:11;;;;;;;14.35;10.13;;;;;;;16.39;100.00;93270.84;5096423;28;20039;-76
2022/07/29 03:39:42;;;;;;;15.32;10.43;;;;;;;16.39;100.00;93271.63;5096070;28;20047;-76
2022/07/29 03:42:12;;;;;;;14.60;10.18;;;;;;;16.26;100.00;93264.25;5088346;28;20105;-76
2022/07/29 03:44:41;;;;;;;15.63;9.65;;;;;;;16.37;100.00;93284.06;5099320;28;20040;-76
2022/07/29 03:47:10;;;;;;;14.80;9.50;;;;;;;16.33;100.00;93277.03;5089929;28;20044;-76
2022/07/29 03:49:38;;;;;;;15.88;8.75;;;;;;;16.14;100.00;93278.13;5101537;28;20140;-76
2022/07/29 03:52:06;;;;;;;14.40;9.88;;;;;;;16.17;100.00;93279.44;5090754;28;20131;-76
2022/07/29 03:54:34;;;;;;;15.75;9.32;;;;;;;16.21;100.00;93282.31;5101007;28;20074;-76
2022/07/29 03:57:04;;;;;;;14.70;9.75;;;;;;;16.29;100.00;93282.69;5090276;28;20097;-76
2022/07/29 03:59:33;;;;;;;15.70;9.10;;;;;;;16.38;100.00;93277.06;5094516;28;20044;-76
2022/07/29 04:02:02;;;;;;;13.45;9.15;;;;;;;16.43;100.00;93283.06;5088821;28;20063;-76
2022/07/29 04:04:29;;;;;;;16.75;9.88;;;;;;;16.52;100.00;93286.00;5087781;28;20105;-76
2022/07/29 04:06:55;;;;;;;14.88;9.88;;;;;;;16.55;100.00;93287.34;5088761;28;20056;-76
2022/07/29 04:09:22;;;;;;;15.05;9.68;;;;;;;16.65;100.00;93286.66;5088356;28;20044;-76
2022/07/29 04:11:50;;;;;;;15.85;10.35;;;;;;;16.66;100.00;93291.59;5088115;28;20312;-76
2022/07/29 04:14:17;;;;;;;14.30;8.70;;;;;;;16.72;100.00;93289.06;5090210;28;20044;-76
2022/07/29 04:16:44;;;;;;;13.52;8.80;;;;;;;16.75;100.00;93289.34;5092281;28;20094;-76
2022/07/29 04:19:11;;;;;;;14.23;9.38;;;;;;;16.79;100.00;93284.44;5102846;28;20035;-76
2022/07/29 04:21:38;;;;;;;13.52;8.98;;;;;;;16.78;100.00;93283.66;5104762;28;20746;-76
2022/07/29 04:24:05;;;;;;;12.27;8.45;;;;;;;16.77;100.00;93286.50;5101546;28;20470;-76
2022/07/29 04:26:32;;;;;;;15.35;9.50;;;;;;;16.79;100.00;93293.00;5101887;28;20488;-76
2022/07/29 04:29:00;;;;;;;15.65;9.75;;;;;;;16.89;100.00;93301.91;5094607;28;20080;-76
2022/07/29 04:31:27;;;;;;;13.82;9.35;;;;;;;16.91;100.00;93303.25;5104688;28;20044;-76
2022/07/29 04:33:54;;;;;;;14.45;8.82;;;;;;;16.98;100.00;93307.44;5098012;28;20039;-76
2022/07/29 04:36:21;;;;;;;16.63;9.52;;;;;;;17.04;100.00;93302.06;5103299;28;20104;-76
2022/07/29 04:38:47;;;;;;;14.77;9.60;;;;;;;17.06;100.00;93302.59;5107072;28;20093;-76
2022/07/29 04:41:14;;;;;;;18.35;8.90;;;;;;;17.14;100.00;93306.56;5100740;28;20047;-76
2022/07/29 04:43:41;;;;;;;16.02;10.20;;;;;;;17.18;100.00;93309.44;5098344;28;20044;-76
2022/07/29 04:46:09;;;;;;;15.15;9.55;;;;;;;17.28;100.00;93313.91;5105889;28;20044;-76
2022/07/29 04:48:36;;;;;;;17.13;10.48;;;;;;;17.24;100.00;93295.47;5112200;28;20052;-75
2022/07/29 04:51:03;;;;;;;19.77;11.38;;;;;;;17.39;100.00;93320.00;5090593;28;20076;-76
2022/07/29 04:53:29;;;;;;;19.27;10.30;;;;;;;17.45;100.00;93311.19;5104037;28;20056;-76
2022/07/29 04:55:56;;;;;;;15.93;11.70;;;;;;;17.54;100.00;93311.50;5097334;28;20493;-77
2022/07/29 04:58:23;;;;;;;21.63;11.43;;;;;;;17.58;100.00;93317.75;5101238;28;20048;-76
2022/07/29 05:00:50;;;;;;;19.10;11.65;;;;;;;17.62;100.00;93311.03;5106531;28;20460;-76
2022/07/29 05:03:19;;;;;;;20.17;11.18;;;;;;;17.60;100.00;93293.09;5102140;28;20113;-77
2022/07/29 05:05:45;;;;;;;23.50;13.07;;;;;;;17.74;100.00;93300.44;5097878;28;20518;-75
2022/07/29 05:08:12;;;;;;;20.05;12.95;;;;;;;17.77;100.00;93302.53;5104277;28;20051;-75
2022/07/29 05:10:39;;;;;;;21.95;13.25;;;;;;;17.89;100.00;93302.34;5098208;28;20052;-75
2022/07/29 05:13:06;;;;;;;21.08;12.60;;;;;;;17.99;100.00;93297.19;5105923;28;20594;-75
2022/07/29 05:15:33;;;;;;;26.30;14.35;;;;;;;18.05;100.00;93299.81;5105086;28;20044;-75
2022/07/29 05:18:01;;;;;;;27.98;15.23;;;;;;;18.20;100.00;93305.09;5098026;28;20088;-75
2022/07/29 05:20:30;;;;;;;26.17;14.20;;;;;;;18.31;100.00;93313.72;5100894;28;20056;-75
2022/07/29 05:22:57;;;;;;;28.67;14.07;;;;;;;18.39;100.00;93304.63;5108552;28;20047;-75
2022/07/29 05:25:24;;;;;;;29.25;16.48;;;;;;;18.46;100.00;93302.56;5101452;28;20051;-75
2022/07/29 05:27:52;;;;;;;29.52;17.42;;;;;;;18.42;100.00;93289.31;5097809;28;20508;-75
2022/07/29 05:30:19;;;;;;;31.23;17.52;;;;;;;18.64;100.00;93303.91;5103616;28;20093;-75
2022/07/29 05:32:46;;;;;;;32.50;17.27;;;;;;;18.74;100.00;93307.59;5104383;28;20564;-75
2022/07/29 05:35:13;;;;;;;30.35;17.17;;;;;;;18.84;100.00;93302.38;5090931;28;20056;-75
2022/07/29 05:37:41;;;;;;;38.13;20.50;;;;;;;18.93;100.00;93307.88;5090685;28;20070;-76
2022/07/29 05:40:09;;;;;;;42.40;21.63;;;;;;;18.98;100.00;93314.91;5090908;28;20090;-76
2022/07/29 05:42:36;;;;;;;32.50;17.23;;;;;;;19.04;100.00;93319.88;5093837;28;20044;-76
2022/07/29 05:45:03;;;;;;;32.05;18.85;;;;;;;19.11;100.00;93314.41;5102568;28;20043;-76
2022/07/29 05:47:30;;;;;;;31.42;16.60;;;;;;;19.19;100.00;93315.69;5095775;28;20447;-76
2022/07/29 05:49:57;;;;;;;31.13;16.70;;;;;;;19.32;100.00;93315.19;5101080;28;20047;-76
2022/07/29 05:52:24;;;;;;;30.08;17.00;;;;;;;19.48;100.00;93328.19;5105295;28;20048;-77
2022/07/29 05:54:52;;;;;;;32.45;18.50;;;;;;;19.54;100.00;93314.13;5100263;28;20447;-76
2022/07/29 05:57:20;;;;;;;41.08;19.25;;;;;;;19.79;100.00;93327.34;5097255;28;20089;-76
2022/07/29 05:59:47;;;;;;;43.28;21.75;;;;;;;19.94;100.00;93332.53;5103885;28;20040;-76
2022/07/29 06:02:14;;;;;;;43.97;21.90;;;;;;;20.08;100.00;93324.19;5105241;28;20466;-76
2022/07/29 06:04:41;;;;;;;37.92;20.10;;;;;;;20.21;100.00;93325.44;5096950;28;20446;-76
2022/07/29 06:07:08;;;;;;;41.78;22.02;;;;;;;20.43;100.00;93323.25;5106403;28;20459;-76
2022/07/29 06:09:35;;;;;;;47.15;22.92;;;;;;;20.64;100.00;93327.59;5107139;28;20036;-76
2022/07/29 06:12:03;;;;;;;43.20;22.45;;;;;;;20.83;100.00;93325.91;5101611;28;20104;-76
2022/07/29 06:14:30;;;;;;;46.72;24.35;;;;;;;20.81;100.00;93327.22;5096467;28;20048;-76
2022/07/29 06:16:57;;;;;;;47.47;23.60;;;;;;;21.03;100.00;93329.47;5102016;28;20044;-76
2022/07/29 06:19:24;;;;;;;44.53;22.85;;;;;;;21.01;100.00;93334.19;5104878;28;20051;-76
2022/07/29 06:21:50;;;;;;;45.30;22.55;;;;;;;21.17;100.00;93336.69;5102803;28;20051;-76
2022/07/29 06:24:17;;;;;;;43.50;22.17;;;;;;;21.24;100.00;93321.47;5097369;28;20052;-77
2022/07/29 06:26:44;;;;;;;46.10;21.67;;;;;;;21.55;100.00;93333.50;5104776;28;20558;-76
2022/07/29 06:29:12;;;;;;;35.72;19.88;;;;;;;21.76;100.00;93326.28;5102768;28;20108;-76
2022/07/29 06:31:39;;;;;;;35.75;19.67;;;;;;;22.10;100.00;93333.25;5096335;28;20039;-77
2022/07/29 06:34:06;;;;;;;29.65;15.75;;;;;;;21.99;100.00;93329.19;5100655;28;20044;-76
2022/07/29 06:36:36;;;;;;;34.40;17.80;;;;;;;22.25;100.00;93329.69;5104479;28;20519;-76
2022/07/29 06:39:05;;;;;;;31.88;15.07;;;;;;;22.31;100.00;93321.78;5099215;28;20516;-76
2022/07/29 06:41:32;;;;;;;26.02;15.13;;;;;;;22.81;100.00;93319.56;5096371;28;20139;-76
2022/07/29 06:43:59;;;;;;;32.85;18.08;;;;;;;23.21;99.44;93323.72;5103138;28;20386;-76
2022/07/29 06:46:27;;;;;;;27.67;16.20;;;;;;;23.72;96.25;93329.22;5093991;28;20508;-76
2022/07/29 06:48:55;;;;;;;19.15;12.32;;;;;;;23.99;91.68;93333.72;5091005;28;20044;-77
2022/07/29 06:51:23;;;;;;;24.33;13.23;;;;;;;24.29;91.29;93328.97;5093167;28;20098;-78
2022/07/29 06:53:51;;;;;;;23.27;12.85;;;;;;;24.61;89.44;93329.13;5089576;28;20054;-77
2022/07/29 06:56:18;;;;;;;23.30;13.82;;;;;;;25.01;89.61;93333.03;5089587;28;20481;-78
2022/07/29 06:58:46;;;;;;;23.98;12.93;;;;;;;25.16;85.71;93332.69;5090349;28;20051;-77
2022/07/29 07:01:18;;;;;;;24.52;12.15;;;;;;;25.44;86.18;93331.78;5096162;28;20386;-78
2022/07/29 07:03:46;;;;;;;20.10;11.40;;;;;;;25.24;85.16;93340.91;5105709;28;20113;-78
2022/07/29 07:06:13;;;;;;;21.25;12.45;;;;;;;25.23;84.94;93329.66;5102701;28;20516;-78
2022/07/29 07:08:40;;;;;;;19.65;12.40;;;;;;;24.79;83.03;93329.28;5105428;28;20071;-78
2022/07/29 07:11:07;;;;;;;19.35;11.05;;;;;;;24.58;85.93;93336.81;5099865;28;20071;-78
2022/07/29 07:13:34;;;;;;;20.17;11.18;;;;;;;24.49;87.04;93321.75;5096285;28;20101;-78
2022/07/29 07:16:01;;;;;;;18.38;11.10;;;;;;;24.65;85.82;93335.34;5102452;28;20121;-77
2022/07/29 07:18:28;;;;;;;17.50;10.73;;;;;;;24.75;86.60;93334.34;5104509;28;20048;-77
2022/07/29 07:20:57;;;;;;;18.85;10.52;;;;;;;24.93;85.55;93339.75;5091851;28;20133;-77
2022/07/29 07:23:24;;;;;;;20.13;10.90;;;;;;;25.02;83.75;93342.47;5103349;28;20048;-77
2022/07/29 07:25:51;;;;;;;18.17;10.55;;;;;;;24.65;84.03;93331.94;5096085;28;20043;-78
2022/07/29 07:28:18;;;;;;;18.40;10.27;;;;;;;23.97;87.89;93330.59;5099236;28;20101;-78
2022/07/29 07:30:45;;;;;;;23.13;9.95;;;;;;;23.95;87.89;93334.56;5104334;28;20040;-77
2022/07/29 07:33:12;;;;;;;26.67;11.02;;;;;;;24.32;90.08;93332.84;5099446;28;20110;-78
2022/07/29 07:35:39;;;;;;;22.38;10.70;;;;;;;24.23;90.07;93330.16;5095633;28;20044;-78
2022/07/29 07:38:07;;;;;;;16.92;9.18;;;;;;;24.46;82.43;93335.47;5101917;28;20105;-77
2022/07/29 07:40:34;;;;;;;20.65;9.73;;;;;;;24.98;83.09;93323.88;5103891;28;20096;-77
2022/07/29 07:43:01;;;;;;;22.35;9.77;;;;;;;25.35;79.84;93329.88;5103760;28;20040;-77
2022/07/29 07:45:28;;;;;;;19.27;9.65;;;;;;;25.20;81.46;93332.84;5095092;28;20830;-77
2022/07/29 07:47:54;;;;;;;18.08;9.38;;;;;;;25.77;79.11;93330.75;5095051;28;20109;-77
2022/07/29 07:50:21;;;;;;;13.13;6.50;;;;;;;25.39;77.16;93329.25;5103615;28;20047;-77
2022/07/29 07:52:50;;;;;;;9.25;6.53;;;;;;;24.69;78.48;93330.28;5097599;28;20112;-77
2022/07/29 07:55:18;;;;;;;11.80;7.32;;;;;;;25.11;77.90;93332.81;5094918;28;20044;-77
2022/07/29 07:57:45;;;;;;;10.05;6.30;;;;;;;25.13;78.31;93329.88;5102755;28;20443;-77
2022/07/29 08:00:13;;;;;;;10.23;7.05;;;;;;;25.60;79.81;93313.81;5103431;28;20051;-77
2022/07/29 08:02:40;;;;;;;14.43;7.85;;;;;;;26.15;81.10;93309.22;5096876;28;20047;-77
2022/07/29 08:05:08;;;;;;;13.77;7.25;;;;;;;26.52;77.80;93324.81;5095434;28;20255;-77
2022/07/29 08:07:35;;;;;;;12.45;6.85;;;;;;;26.87;77.64;93329.34;5103701;28;20504;-77
2022/07/29 08:10:02;;;;;;;10.45;7.85;;;;;;;27.21;75.69;93319.91;5097078;28;20051;-77
2022/07/29 08:12:30;;;;;;;12.65;7.55;;;;;;;27.19;76.56;93319.44;5103021;28;20048;-77
2022/07/29 08:14:57;;;;;;;11.32;8.25;;;;;;;26.98;74.82;93322.69;5099888;28;20108;-77
2022/07/29 08:17:23;;;;;;;10.52;7.00;;;;;;;27.32;75.44;93331.66;5094846;28;20089;-77
2022/07/29 08:19:50;;;;;;;11.27;7.18;;;;;;;27.80;74.55;93330.97;5100100;28;20044;-76
2022/07/29 08:22:17;;;;;;;10.90;6.88;;;;;;;27.34;71.21;93336.63;5090831;28;20052;-77
2022/07/29 08:24:45;;;;;;;13.00;8.48;;;;;;;27.38;73.11;93332.28;5103165;28;20120;-77
2022/07/29 08:27:13;;;;;;;10.95;8.05;;;;;;;27.72;74.20;93333.34;5093894;28;20054;-77
2022/07/29 08:29:41;;;;;;;9.70;6.93;;;;;;;27.83;72.97;93309.25;5097931;28;20044;-77
2022/07/29 08:32:08;;;;;;;11.85;6.93;;;;;;;27.85;75.33;93328.16;5102869;28;20085;-77
2022/07/29 08:34:34;;;;;;;9.30;6.10;;;;;;;27.92;70.53;93333.75;5099035;28;20096;-77
2022/07/29 08:37:01;;;;;;;13.25;7.72;;;;;;;27.55;73.51;93320.16;5095121;28;20044;-77
2022/07/29 08:39:28;;;;;;;10.65;7.03;;;;;;;27.99;72.95;93320.81;5100947;28;20104;-77
2022/07/29 08:41:55;;;;;;;10.05;6.55;;;;;;;28.41;71.86;93319.41;5102881;28;20552;-77
2022/07/29 08:44:22;;;;;;;11.60;6.68;;;;;;;28.77;69.12;93315.44;5095427;28;20066;-77
2022/07/29 08:46:50;;;;;;;9.00;6.72;;;;;;;28.97;69.18;93315.78;5096340;28;20059;-77
2022/07/29 08:49:17;;;;;;;10.68;6.88;;;;;;;29.44;67.68;93319.28;5102965;28;20539;-77
2022/07/29 08:51:45;;;;;;;10.52;6.38;;;;;;;29.38;65.29;93317.94;5100513;28;20043;-78
2022/07/29 08:54:17;;;;;;;11.75;6.82;;;;;;;30.03;66.24;93314.00;5094727;28;20039;-77
2022/07/29 08:56:45;;;;;;;10.45;6.55;;;;;;;30.37;64.14;93309.38;5098417;28;20047;-77
2022/07/29 08:59:13;;;;;;;12.10;6.40;;;;;;;30.60;64.35;93307.03;5103099;28;20097;-78
2022/07/29 09:01:42;;;;;;;12.95;6.80;;;;;;;30.83;62.55;93308.41;5088830;28;20410;-78
2022/07/29 09:04:12;;;;;;;9.10;6.47;;;;;;;30.72;57.59;93289.56;5102849;28;20079;-78
2022/07/29 09:06:45;;;;;;;9.85;5.80;;;;;;;30.93;59.47;93313.25;5096043;28;20052;-78
2022/07/29 09:09:13;;;;;;;7.43;5.00;;;;;;;30.99;56.92;93311.13;5102973;28;20390;-77
2022/07/29 09:11:41;;;;;;;7.97;5.18;;;;;;;31.41;57.74;93300.16;5098859;28;20058;-77
2022/07/29 09:14:08;;;;;;;10.27;5.97;;;;;;;31.67;57.59;93304.22;5094600;28;20048;-78
2022/07/29 09:16:50;;;;;;;10.95;6.72;;;;;;;30.91;58.06;93302.22;5100674;28;20048;-79
2022/07/29 09:19:28;;;;;;;9.30;6.40;;;;;;;31.39;56.83;93293.63;5103262;28;20093;-78
2022/07/29 09:21:57;;;;;;;14.00;6.65;;;;;;;31.83;58.11;93296.25;5099170;28;20123;-77
2022/07/29 09:24:26;;;;;;;9.38;6.40;;;;;;;31.75;58.40;93302.50;5104056;28;20097;-78
2022/07/29 09:26:52;;;;;;;9.77;6.68;;;;;;;31.60;56.03;93304.00;5106286;28;20061;-78
2022/07/29 09:29:21;;;;;;;10.43;6.63;;;;;;;31.98;57.63;93293.97;5098978;28;20084;-77
2022/07/29 09:31:49;;;;;;;8.88;6.10;;;;;;;32.33;57.52;93295.88;5098929;28;20044;-80
2022/07/29 09:34:17;;;;;;;10.73;6.40;;;;;;;31.45;55.13;93295.72;5106251;28;20546;-78
2022/07/29 09:36:47;;;;;;;12.07;7.13;;;;;;;31.53;57.47;93285.25;5104552;28;20044;-78
2022/07/29 09:39:15;;;;;;;11.25;6.57;;;;;;;32.06;54.56;93302.88;5094981;28;20047;-79
2022/07/29 09:41:49;;;;;;;8.77;5.65;;;;;;;32.29;54.71;93299.59;5094730;28;20043;-79
2022/07/29 09:44:16;;;;;;;7.82;5.45;;;;;;;31.65;53.10;93298.47;5098372;28;20055;-79
2022/07/29 09:46:57;;;;;;;7.15;5.65;;;;;;;31.06;53.71;93290.13;5110788;28;20101;-79
2022/07/29 09:49:24;;;;;;;9.85;6.50;;;;;;;31.13;58.17;93279.69;5097755;28;20096;-79
2022/07/29 09:52:04;;;;;;;9.55;6.00;;;;;;;31.30;55.32;93286.63;5099663;28;20070;-79
2022/07/29 09:54:36;;;;;;;8.63;6.65;;;;;;;31.41;54.83;93273.59;5097925;28;20039;-79
2022/07/29 09:57:03;;;;;;;9.95;6.85;;;;;;;31.15;55.39;93253.56;5098896;28;20054;-79
2022/07/29 09:59:30;;;;;;;8.93;6.20;;;;;;;31.27;53.53;93281.16;5105400;28;20459;-79
2022/07/29 10:01:57;;;;;;;7.30;6.20;;;;;;;31.79;55.84;93270.72;5102639;28;20401;-78
2022/07/29 10:04:24;;;;;;;9.88;6.82;;;;;;;32.15;54.58;93262.84;5097120;28;20043;-78
2022/07/29 10:06:59;;;;;;;8.55;6.57;;;;;;;32.66;54.31;93262.81;5106254;28;20562;-77
2022/07/29 10:09:27;;;;;;;9.50;6.50;;;;;;;33.04;52.67;93252.53;5108877;28;20158;-79
2022/07/29 10:12:08;;;;;;;11.90;7.00;;;;;;;33.32;47.26;93261.41;5100880;28;20039;-79
2022/07/29 10:14:36;;;;;;;11.07;6.38;;;;;;;33.11;50.92;93251.91;5097204;28;20122;-78
2022/07/29 10:17:04;;;;;;;9.52;6.75;;;;;;;33.51;49.59;93254.47;5101853;28;20036;-77
2022/07/29 10:19:33;;;;;;;9.35;6.88;;;;;;;33.77;46.83;93237.78;5105221;28;20097;-79
2022/07/29 10:22:00;;;;;;;9.55;6.45;;;;;;;33.97;45.97;93238.47;5104115;28;20036;-77
2022/07/29 10:24:30;;;;;;;8.10;5.80;;;;;;;33.99;42.44;93241.56;5096670;28;20497;-81
2022/07/29 10:26:59;;;;;;;9.65;5.45;;;;;;;33.57;41.46;93235.22;5103892;28;20056;-80
2022/07/29 10:29:26;;;;;;;7.50;5.88;;;;;;;34.08;43.26;93229.88;5105029;28;20051;-79
2022/07/29 10:32:07;;;;;;;7.50;6.65;;;;;;;34.25;43.12;93237.34;5096560;28;20451;-76
2022/07/29 10:34:48;;;;;;;10.70;6.80;;;;;;;34.50;42.22;93231.59;5110890;28;20044;-78
2022/07/29 10:37:23;;;;;;;9.60;6.90;;;;;;;34.19;40.16;93228.16;5103453;28;20047;-80
2022/07/29 10:39:56;;;;;;;;;;;;;;;33.30;40.95;93219.16;5105173;28;20044;-80
2022/07/29 10:42:25;;;;;;;12.15;7.68;;;;;;;33.63;45.01;93221.59;5097288;28;19923;-79
2022/07/29 10:44:54;;;;;;;12.20;7.95;;;;;;;34.03;44.94;93206.19;5098124;28;20142;-78
2022/07/29 10:47:22;;;;;;;11.10;7.97;;;;;;;34.55;44.05;93211.06;5095739;28;20048;-79
2022/07/29 10:49:59;;;;;;;11.75;7.70;;;;;;;34.83;43.68;93217.88;5101234;28;20058;-78
2022/07/29 10:52:56;;;;;;;10.07;7.25;;;;;;;35.13;42.23;93198.41;5104510;28;20101;-81
2022/07/29 10:55:42;;;;;;;9.52;6.75;;;;;;;35.03;42.15;93179.22;5104039;28;20578;-80
2022/07/29 10:58:14;;;;;;;9.27;7.30;;;;;;;35.43;41.03;93197.50;5090134;28;20086;-78
2022/07/29 11:00:41;;;;;;;8.95;7.05;;;;;;;35.37;40.59;93196.31;5090119;28;20523;-78
2022/07/29 11:03:07;;;;;;;9.52;7.82;;;;;;;35.64;38.19;93201.53;5097084;28;20048;-76
2022/07/29 11:05:52;;;;;;;10.52;8.00;;;;;;;35.75;39.35;93196.25;5099362;28;20063;-77
2022/07/29 11:08:25;;;;;;;9.32;7.38;;;;;;;35.83;39.82;93195.16;5092893;28;20048;-76
2022/07/29 11:11:14;;;;;;;11.57;7.40;;;;;;;35.83;38.54;93189.81;5101386;28;20048;-78
2022/07/29 11:13:51;;;;;;;9.68;7.93;;;;;;;35.33;39.57;93187.50;5098270;28;20056;-75
2022/07/29 11:16:21;;;;;;;9.73;7.28;;;;;;;35.63;40.86;93186.63;5099113;28;20047;-76
2022/07/29 11:19:21;;;;;;;8.48;7.20;;;;;;;35.42;37.71;93182.63;5100271;28;20047;-77
2022/07/29 11:21:49;;;;;;;11.40;7.70;;;;;;;35.26;40.32;93164.19;5089419;28;20048;-79
2022/07/29 11:24:20;;;;;;;10.32;7.47;;;;;;;35.70;38.06;93178.66;5096472;28;20412;-79
2022/07/29 11:27:07;;;;;;;8.68;6.93;;;;;;;35.96;37.99;93190.28;5096867;28;20052;-80
2022/07/29 11:29:36;;;;;;;6.95;5.82;;;;;;;35.55;37.33;93183.88;5098351;28;20104;-80
2022/07/29 11:35:13;;;;;;;9.38;7.28;;;;;;;34.03;38.84;93164.31;5101774;28;20136;-81